createdAt,value
2019-04-23T00:01:33.871Z,2.60
2019-04-23T00:04:03.780Z,3.00
2019-04-23T00:06:48.907Z,3.10
2019-04-23T00:08:59.184Z,3.02
2019-04-23T00:11:35.737Z,3.00
2019-04-23T00:14:05.945Z,2.77
2019-04-23T00:16:33.027Z,3.17
2019-04-23T00:18:55.848Z,2.98
2019-04-23T00:21:42.483Z,2.72
2019-04-23T00:24:46.554Z,3.10
2019-04-23T00:27:09.632Z,3.37
2019-04-23T00:29:40.190Z,2.80
2019-04-23T00:31:59.547Z,2.70
2019-04-23T00:34:35.980Z,2.80
2019-04-23T00:37:11.308Z,2.95
2019-04-23T00:39:34.273Z,3.02
2019-04-23T00:42:09.839Z,3.07
2019-04-23T00:44:44.112Z,3.27
2019-04-23T00:47:01.081Z,3.05
2019-04-23T00:50:02.109Z,3.08
2019-04-23T00:52:14.824Z,3.00
2019-04-23T00:54:41.114Z,3.20
2019-04-23T00:57:14.984Z,3.22
2019-04-23T00:59:46.808Z,3.37
2019-04-23T01:02:10.501Z,3.45
2019-04-23T01:04:41.886Z,3.42
2019-04-23T01:07:16.501Z,3.52
2019-04-23T01:09:45.715Z,3.33
2019-04-23T01:12:14.133Z,3.77
2019-04-23T01:14:39.738Z,3.47
2019-04-23T01:17:24.020Z,3.20
2019-04-23T01:22:10.488Z,3.70
2019-04-23T01:24:50.816Z,3.98
2019-04-23T01:27:51.130Z,3.60
2019-04-23T01:30:23.628Z,3.80
2019-04-23T01:32:52.021Z,3.85
2019-04-23T01:35:20.273Z,3.42
2019-04-23T01:37:55.337Z,4.05
2019-04-23T01:40:26.023Z,3.98
2019-04-23T01:43:04.194Z,4.00
2019-04-23T01:55:26.321Z,3.98
2019-04-23T01:58:08.637Z,3.70
2019-04-23T02:00:30.727Z,4.28
2019-04-23T02:03:02.211Z,4.53
2019-04-23T02:05:32.945Z,4.20
2019-04-23T02:07:56.839Z,3.85
2019-04-23T02:13:01.578Z,4.20
2019-04-23T02:15:33.158Z,4.78
2019-04-23T02:18:17.982Z,4.53
2019-04-23T02:20:59.587Z,4.47
2019-04-23T02:23:31.281Z,4.78
2019-04-23T02:26:03.020Z,4.80
2019-04-23T02:28:32.649Z,4.80
2019-04-23T02:36:05.441Z,5.20
2019-04-23T02:41:11.822Z,4.90
2019-04-23T02:43:59.650Z,5.45
2019-04-23T02:48:45.879Z,5.78
2019-04-23T02:51:10.316Z,5.20
2019-04-23T02:56:26.397Z,5.87
2019-04-23T02:58:41.898Z,5.92
2019-04-23T03:03:51.353Z,6.15
2019-04-23T03:06:14.223Z,5.12
2019-04-23T03:14:01.080Z,6.15
2019-04-23T03:16:40.165Z,6.22
2019-04-23T03:19:13.392Z,6.28
2019-04-23T03:24:36.516Z,6.67
2019-04-23T03:29:42.066Z,6.45
2019-04-23T03:39:55.097Z,6.20
2019-04-23T03:44:47.781Z,7.05
2019-04-23T03:47:10.829Z,6.70
2019-04-23T03:49:43.926Z,6.33
2019-04-23T03:52:31.380Z,6.50
2019-04-23T03:57:20.259Z,7.05
2019-04-23T03:59:52.214Z,6.50
2019-04-23T04:04:39.196Z,6.33
2019-04-23T04:07:22.585Z,7.00
2019-04-23T04:09:47.616Z,7.28
2019-04-23T04:14:44.955Z,7.00
2019-04-23T04:17:16.017Z,6.10
2019-04-23T04:22:37.112Z,6.90
2019-04-23T04:24:48.649Z,6.50
2019-04-23T04:27:30.386Z,6.60
2019-04-23T04:32:12.053Z,6.17
2019-04-23T04:47:27.924Z,5.70
2019-04-23T04:49:58.338Z,6.70
2019-04-23T04:54:53.951Z,6.37
2019-04-23T04:57:29.775Z,7.15
2019-04-23T05:00:08.333Z,6.62
2019-04-23T05:05:31.327Z,6.33
2019-04-23T05:07:42.139Z,6.20
2019-04-23T05:12:27.488Z,7.15
2019-04-23T05:18:08.249Z,6.40
2019-04-23T05:20:16.955Z,7.05
2019-04-23T05:25:05.779Z,6.22
2019-04-23T05:27:47.174Z,6.10
2019-04-23T05:32:45.490Z,6.80
2019-04-23T05:35:15.067Z,6.05
2019-04-23T05:37:50.365Z,6.05
2019-04-23T05:40:28.186Z,6.25
2019-04-23T05:45:30.156Z,6.90
2019-04-23T05:47:47.492Z,6.03
2019-04-23T05:50:22.852Z,6.72
2019-04-23T05:52:46.316Z,7.05
2019-04-23T05:55:13.250Z,6.40
2019-04-23T05:57:42.676Z,6.72
2019-04-23T06:00:19.844Z,6.97
2019-04-23T06:02:53.703Z,6.65
2019-04-23T06:05:20.136Z,7.87
2019-04-23T06:07:47.403Z,7.67
2019-04-23T06:10:23.210Z,7.30
2019-04-23T06:12:43.677Z,7.17
2019-04-23T06:15:23.800Z,7.20
2019-04-23T06:20:53.436Z,7.40
2019-04-23T06:23:18.759Z,7.30
2019-04-23T06:26:08.061Z,7.33
2019-04-23T06:28:14.227Z,7.30
2019-04-23T06:30:47.283Z,7.87
2019-04-23T06:35:48.781Z,8.08
2019-04-23T06:38:34.438Z,7.67
2019-04-23T06:40:47.378Z,8.58
2019-04-23T06:43:40.826Z,9.20
2019-04-23T06:46:09.972Z,8.48
2019-04-23T06:48:33.809Z,8.98
2019-04-23T06:51:16.980Z,8.60
2019-04-23T06:53:37.461Z,7.90
2019-04-23T06:56:13.620Z,8.03
2019-04-23T06:58:48.930Z,8.00
2019-04-23T07:01:05.271Z,8.10
2019-04-23T07:03:43.741Z,8.28
2019-04-23T07:16:12.822Z,8.33
2019-04-23T07:18:41.518Z,7.95
2019-04-23T07:26:27.380Z,7.72
2019-04-23T07:28:50.285Z,8.60
2019-04-23T07:31:24.358Z,8.20
2019-04-23T07:33:52.233Z,8.45
2019-04-23T07:36:24.264Z,8.27
2019-04-23T07:44:20.435Z,7.92
2019-04-23T07:49:18.033Z,8.15
2019-04-23T07:52:01.186Z,7.75
2019-04-23T07:54:22.814Z,7.60
2019-04-23T07:56:53.263Z,8.63
2019-04-23T07:59:24.922Z,7.78
2019-04-23T08:01:57.186Z,8.08
2019-04-23T08:04:27.481Z,8.00
2019-04-23T08:06:55.941Z,7.55
2019-04-23T08:09:26.270Z,7.60
2019-04-23T08:11:56.637Z,7.60
2019-04-23T08:14:22.405Z,6.60
2019-04-23T08:16:53.795Z,7.30
2019-04-23T08:19:33.431Z,7.95
2019-04-23T08:22:06.627Z,6.70
2019-04-23T08:24:45.277Z,7.33
2019-04-23T08:27:24.170Z,6.50
2019-04-23T08:29:43.806Z,6.03
2019-04-23T08:37:32.369Z,5.28
2019-04-23T08:39:46.443Z,5.22
2019-04-23T08:42:39.210Z,5.70
2019-04-23T08:45:15.329Z,5.28
2019-04-23T08:47:40.237Z,5.53
2019-04-23T08:50:12.774Z,5.20
2019-04-23T08:52:42.946Z,5.60
2019-04-23T08:55:13.843Z,5.72
2019-04-23T08:57:43.965Z,5.30
2019-04-23T09:00:14.747Z,4.80
2019-04-23T09:02:55.025Z,5.67
2019-04-23T09:05:23.450Z,6.20
2019-04-23T09:07:56.950Z,4.97
2019-04-23T09:10:23.364Z,4.60
2019-04-23T09:13:00.730Z,4.83
2019-04-23T09:15:24.949Z,4.40
2019-04-23T09:17:55.123Z,3.93
2019-04-23T09:22:51.707Z,4.60
2019-04-23T09:25:31.894Z,3.70
2019-04-23T09:27:53.198Z,4.47
2019-04-23T09:33:00.033Z,4.33
2019-04-23T09:35:34.007Z,4.10
2019-04-23T09:38:17.828Z,4.15
2019-04-23T09:41:08.729Z,4.28
2019-04-23T09:43:27.719Z,3.80
2019-04-23T09:46:05.696Z,4.92
2019-04-23T09:48:35.460Z,4.10
2019-04-23T09:51:02.670Z,4.20
2019-04-23T09:55:51.480Z,3.70
2019-04-23T09:58:31.030Z,3.93
2019-04-23T10:03:47.880Z,4.20
2019-04-23T10:06:14.898Z,3.50
2019-04-23T10:08:42.900Z,3.95
2019-04-23T10:11:09.451Z,3.75
2019-04-23T10:13:38.752Z,3.60
2019-04-23T10:16:10.264Z,3.60
2019-04-23T10:18:39.316Z,3.97
2019-04-23T10:21:08.536Z,3.80
2019-04-23T10:23:38.982Z,3.62
2019-04-23T10:26:08.076Z,3.80
2019-04-23T10:28:40.114Z,3.67
2019-04-23T10:31:09.167Z,3.55
2019-04-23T10:33:38.146Z,3.45
2019-04-23T10:36:11.696Z,3.45
2019-04-23T10:38:41.638Z,3.30
2019-04-23T10:41:09.787Z,3.85
2019-04-23T10:43:42.136Z,3.67
2019-04-23T10:46:43.382Z,3.80
2019-04-23T10:51:59.764Z,3.62
2019-04-23T10:54:37.657Z,3.62
2019-04-23T10:57:01.596Z,3.72
2019-04-23T11:04:54.027Z,3.65
2019-04-23T11:07:28.463Z,3.98
2019-04-23T11:09:55.701Z,3.65
2019-04-23T11:12:32.039Z,3.45
2019-04-23T11:14:58.471Z,3.50
2019-04-23T11:17:36.446Z,4.35
2019-04-23T11:20:06.927Z,3.80
2019-04-23T11:27:28.005Z,3.70
2019-04-23T11:30:00.251Z,3.93
2019-04-23T11:35:13.926Z,4.33
2019-04-23T11:37:45.862Z,3.60
2019-04-23T11:40:04.152Z,3.70
2019-04-23T11:45:27.236Z,3.80
2019-04-23T11:50:14.056Z,3.63
2019-04-23T11:52:38.427Z,3.37
2019-04-23T11:55:04.401Z,3.53
2019-04-23T12:00:08.002Z,3.50
2019-04-23T12:02:49.985Z,3.47
2019-04-23T12:05:33.442Z,4.20
2019-04-23T12:08:23.276Z,4.30
2019-04-23T12:13:21.251Z,4.22
2019-04-23T12:15:50.030Z,3.67
2019-04-23T12:18:19.920Z,3.37
2019-04-23T12:20:49.436Z,3.83
2019-04-23T12:23:31.630Z,3.87
2019-04-23T12:28:25.889Z,4.00
2019-04-23T12:33:30.135Z,3.83
2019-04-23T12:35:44.133Z,3.80
2019-04-23T12:38:19.195Z,3.98
2019-04-23T12:40:51.318Z,3.63
2019-04-23T12:43:23.821Z,3.90
2019-04-23T12:45:47.354Z,3.65
2019-04-23T12:48:34.960Z,4.42
2019-04-23T12:51:07.983Z,3.83
2019-04-23T12:53:30.445Z,3.80
2019-04-23T12:55:53.793Z,3.87
2019-04-23T12:58:32.337Z,4.73
2019-04-23T13:00:52.851Z,4.37
2019-04-23T13:03:31.389Z,4.22
2019-04-23T13:05:51.010Z,4.13
2019-04-23T13:08:39.536Z,4.37
2019-04-23T13:11:00.450Z,4.33
2019-04-23T13:16:06.273Z,4.20
2019-04-23T13:21:13.393Z,4.20
2019-04-23T13:23:34.702Z,3.92
2019-04-23T13:25:59.559Z,3.75
2019-04-23T13:31:12.478Z,3.98
2019-04-23T13:41:19.128Z,4.55
2019-04-23T13:43:40.106Z,4.23
2019-04-23T13:48:36.084Z,3.87
2019-04-23T13:51:21.951Z,3.93
2019-04-23T13:53:57.105Z,4.47
2019-04-23T13:56:17.396Z,4.50
2019-04-23T13:58:50.402Z,4.03
2019-04-23T14:01:28.059Z,4.30
2019-04-23T14:06:20.816Z,4.13
2019-04-23T14:08:56.333Z,4.60
2019-04-23T14:16:35.776Z,3.95
2019-04-23T14:18:56.027Z,4.03
2019-04-23T14:24:04.646Z,3.70
2019-04-23T14:28:44.529Z,3.97
2019-04-23T14:31:17.485Z,4.00
2019-04-23T14:34:00.124Z,4.10
2019-04-23T14:41:23.216Z,4.00
2019-04-23T14:48:56.788Z,3.58
2019-04-23T14:51:47.527Z,3.55
2019-04-23T14:53:58.873Z,3.80
2019-04-23T14:56:30.151Z,3.35
2019-04-23T15:01:49.514Z,3.40
2019-04-23T15:04:11.438Z,3.33
2019-04-23T15:14:06.163Z,3.55
2019-04-23T15:19:28.489Z,2.95
2019-04-23T15:29:07.005Z,3.17
2019-04-23T15:31:58.936Z,3.75
2019-04-23T15:37:14.496Z,3.50
2019-04-23T15:44:16.127Z,3.27
2019-04-23T15:49:32.258Z,3.37
2019-04-23T15:51:56.898Z,3.47
2019-04-23T15:54:39.954Z,3.50
2019-04-23T15:59:38.679Z,3.50
2019-04-23T16:04:03.394Z,3.20
2019-04-23T16:06:34.862Z,3.33
2019-04-23T16:09:21.466Z,3.37
2019-04-23T16:11:56.669Z,3.30
2019-04-23T16:14:35.050Z,4.17
2019-04-23T16:17:08.215Z,3.72
2019-04-23T16:19:33.251Z,3.20
2019-04-23T16:22:03.702Z,3.45
2019-04-23T16:24:56.042Z,3.53
2019-04-23T16:27:07.748Z,3.87
2019-04-23T16:29:54.208Z,3.20
2019-04-23T16:32:14.931Z,3.80
2019-04-23T16:34:34.271Z,3.90
2019-04-23T16:37:15.115Z,3.83
2019-04-23T16:39:44.249Z,3.93
2019-04-23T16:42:18.177Z,3.70
2019-04-23T16:49:55.560Z,3.90
2019-04-23T16:52:14.674Z,4.30
2019-04-23T16:54:54.936Z,3.83
2019-04-23T16:57:30.457Z,4.12
2019-04-23T17:00:02.512Z,4.33
2019-04-23T17:02:21.177Z,4.20
2019-04-23T17:07:13.243Z,4.30
2019-04-23T17:10:01.225Z,4.23
2019-04-23T17:15:02.079Z,3.90
2019-04-23T17:17:15.193Z,5.03
2019-04-23T17:19:50.437Z,5.08
2019-04-23T17:22:17.937Z,5.33
2019-04-23T17:25:04.255Z,5.47
2019-04-23T17:27:22.798Z,5.58
2019-04-23T17:30:01.090Z,5.70
2019-04-23T17:32:21.070Z,6.25
2019-04-23T17:35:04.892Z,6.50
2019-04-23T17:42:52.610Z,5.20
2019-04-23T17:47:57.467Z,4.90
2019-04-23T17:52:58.312Z,4.75
2019-04-23T17:55:22.411Z,4.90
2019-04-23T17:57:58.880Z,4.47
2019-04-23T18:00:34.076Z,4.85
2019-04-23T18:05:25.153Z,4.15
2019-04-23T18:07:59.312Z,4.58
2019-04-23T18:13:04.433Z,4.55
2019-04-23T18:15:24.525Z,5.07
2019-04-23T18:18:02.519Z,5.17
2019-04-23T18:20:37.643Z,4.85
2019-04-23T18:23:11.088Z,5.55
2019-04-23T18:28:12.772Z,5.05
2019-04-23T18:35:51.695Z,4.87
2019-04-23T18:38:29.157Z,5.07
2019-04-23T18:41:02.080Z,5.20
2019-04-23T18:46:16.639Z,5.20
2019-04-23T18:51:03.678Z,5.65
2019-04-23T18:56:06.890Z,5.45
2019-04-23T18:58:44.730Z,5.22
2019-04-23T19:01:06.806Z,5.50
2019-04-23T19:04:17.192Z,5.25
2019-04-23T19:06:30.394Z,5.83
2019-04-23T19:09:03.166Z,5.12
2019-04-23T19:11:51.829Z,6.05
2019-04-23T19:14:18.466Z,5.55
2019-04-23T19:17:07.235Z,5.40
2019-04-23T19:22:07.171Z,5.55
2019-04-23T19:24:28.800Z,5.27
2019-04-23T19:27:07.117Z,5.50
2019-04-23T19:29:21.277Z,5.70
2019-04-23T19:31:54.118Z,5.12
2019-04-23T19:44:37.288Z,5.50
2019-04-23T19:49:34.272Z,5.85
2019-04-23T19:52:00.451Z,6.20
2019-04-23T19:54:52.630Z,5.50
2019-04-23T19:59:43.214Z,5.85
2019-04-23T20:04:39.452Z,5.92
2019-04-23T20:09:46.176Z,5.97
2019-04-23T20:14:41.701Z,5.83
2019-04-23T20:17:23.464Z,5.72
2019-04-23T20:19:48.734Z,6.30
2019-04-23T20:24:53.611Z,5.75
2019-04-23T20:27:13.895Z,6.65
2019-04-23T20:30:07.399Z,5.90
2019-04-23T20:37:25.475Z,5.97
2019-04-23T20:39:50.650Z,6.08
2019-04-23T20:47:24.575Z,6.30
2019-04-23T20:52:33.915Z,6.03
2019-04-23T21:00:27.507Z,5.67
2019-04-23T21:03:18.170Z,6.00
2019-04-23T21:05:26.176Z,5.92
2019-04-23T21:07:57.953Z,7.00
2019-04-23T21:15:33.653Z,5.92
2019-04-23T21:25:34.684Z,5.87
2019-04-23T21:28:13.781Z,6.08
2019-04-23T21:33:15.736Z,6.03
2019-04-23T21:36:18.760Z,5.87
2019-04-23T21:41:30.006Z,6.58
2019-04-23T21:44:08.573Z,6.12
2019-04-23T21:51:31.894Z,6.45
2019-04-23T21:56:15.466Z,6.45
2019-04-23T21:58:53.358Z,6.22
2019-04-23T22:06:29.553Z,6.35
2019-04-23T22:11:44.357Z,6.50
2019-04-23T22:13:58.165Z,6.60
2019-04-23T22:18:58.667Z,6.53
2019-04-23T22:21:14.289Z,6.33
2019-04-23T22:23:52.900Z,6.25
2019-04-23T22:26:16.936Z,6.00
2019-04-23T22:28:48.933Z,6.22
2019-04-23T22:31:14.766Z,6.72
2019-04-23T22:33:50.903Z,6.42
2019-04-23T22:36:09.776Z,6.55
2019-04-23T22:38:35.656Z,6.40
2019-04-23T22:41:06.520Z,6.35
2019-04-23T22:43:38.009Z,6.53
2019-04-23T22:48:34.944Z,6.00
2019-04-23T22:51:07.078Z,6.28
2019-04-23T22:53:31.455Z,6.62
2019-04-23T22:56:01.444Z,6.80
2019-04-23T22:58:19.436Z,6.78
2019-04-23T23:03:41.878Z,6.15
2019-04-23T23:06:29.538Z,6.30
2019-04-23T23:08:55.846Z,6.10
2019-04-23T23:11:14.098Z,6.53
2019-04-23T23:18:35.473Z,6.83
2019-04-23T23:21:05.631Z,6.33
2019-04-23T23:26:06.598Z,6.70
2019-04-23T23:28:34.967Z,6.12
2019-04-23T23:31:04.067Z,6.67
2019-04-23T23:33:24.576Z,7.08
2019-04-23T23:36:03.156Z,6.62
2019-04-23T23:38:33.551Z,6.37
2019-04-23T23:40:57.165Z,6.47
2019-04-23T23:45:55.408Z,6.62
2019-04-23T23:48:20.065Z,6.90
2019-04-23T23:50:54.701Z,6.12
2019-04-23T23:55:55.429Z,7.10
2019-04-23T23:58:23.658Z,6.30
